Aviation Digital Data Service (ADDS)

Output produced by METARs form (1109 UTC 13 December 2017)
found at http://www.aviationweather.gov/adds/metars/
 
MHSC 131058Z AUTO 36012G17KT 9999 BKN020 OVC030 16/15 A3013 RMK AO2 BKN V OVC CIG 018 RWY17 SLP184 T01640146 $
TAF AMD MHSC 1302/1403 35012G18KT 9999 BKN050 QNH3019INS 
     BECMG 1303/1304 35009KT 9999 SCT020 BKN040 QNH3014INS 
     BECMG 1317/1318 35010G15KT 9999 SCT030 QNH3008INS 
     BECMG 1323/1324 VRB06KT 9999 SCT030 QNH3012INS TX24/1221Z TN14/1308Z LAST NO AMDS AFT 1302 NEXT 1313
       
MHLC 130600Z 20006KT 9999 SCT020 BKN080 19/18 Q1020 A3012 NOSIG
TAF MHLC 131025Z 1312/1412 20003KT 7000 VCSH SCT020 BKN070 TX23/1319Z TN18/1412Z 
     BECMG 1314/1316 5000 -RA SCT018TCU BKN070 
     BECMG 1317/1319 33004KT 9999 NSW 
     BECMG 1321/1323 8000 VCSH SCT022TCU BKN080 
     BECMG 1401/1403 9999 NSW SCT024 SCT080
       
MHRO 130600Z 30005KT 9999 SCT020 23/20 Q1019 A3009 NOSIG
TAF MHRO 131025Z 1312/1412 31012KT 9999 SCT022 TX26/1321Z TN22/1412Z 
     BECMG 1314/1316 6000 VCSH SCT018TCU SCT080 
     BECMG 1317/1319 02012KT 9999 NSW 
     BECMG 1404/1406 17005KT SCT022
       
MHLM 130600Z 17003KT 9999 FEW022 BKN080 19/19 Q1021 A3015 NOSIG
TAF MHLM 131025Z 1312/1412 00000KT 9999 FEW024 BKN080 TX24/1319Z TN17/1412Z 
     BECMG 1314/1316 35004KT SCT024 BKN080 
     BECMG 1318/1320 00000KT 9999 NSW SCT026 SCT080
       
MHTG 131100Z 36008KT 9999 FEW020 BKN026 14/12 Q1021 A3015 NOSIG
TAF MHTG 131025Z 1312/1412 35008KT 9999 FEW006 BKN022 TX22/1319Z TN12/1412Z 
     BECMG 1315/1317 01010G20KT FEW014 BKN026 
     BECMG 1323/1401 01010KT FEW008 SCT022